createdAt,value
2018-09-21T00:00:42.290Z,19.40
2018-09-21T00:03:11.128Z,19.40
2018-09-21T00:05:39.044Z,19.40
2018-09-21T00:08:06.711Z,19.30
2018-09-21T00:10:34.530Z,19.10
2018-09-21T00:13:02.014Z,19.10
2018-09-21T00:15:29.649Z,19.30
2018-09-21T00:17:57.485Z,19.20
2018-09-21T00:20:25.160Z,19.10
2018-09-21T00:22:52.600Z,19.10
2018-09-21T00:25:25.269Z,19.20
2018-09-21T00:27:52.808Z,19.10
2018-09-21T00:30:20.300Z,19.00
2018-09-21T00:32:47.799Z,19.10
2018-09-21T00:35:15.381Z,19.10
2018-09-21T00:37:43.019Z,18.90
2018-09-21T00:40:10.609Z,18.80
2018-09-21T00:42:38.063Z,18.80
2018-09-21T00:45:05.769Z,18.90
2018-09-21T00:47:33.238Z,18.80
2018-09-21T00:50:00.717Z,18.70
2018-09-21T00:52:28.168Z,18.70
2018-09-21T00:54:55.646Z,18.70
2018-09-21T00:57:23.203Z,18.80
2018-09-21T00:59:50.675Z,18.90
2018-09-21T01:02:18.109Z,18.80
2018-09-21T01:04:45.547Z,18.90
2018-09-21T01:07:14.196Z,19.10
2018-09-21T01:09:41.907Z,19.30
2018-09-21T01:12:09.394Z,19.30
2018-09-21T01:14:36.844Z,19.20
2018-09-21T01:17:04.725Z,19.10
2018-09-21T01:19:32.184Z,19.20
2018-09-21T01:21:59.672Z,19.20
2018-09-21T01:24:27.119Z,19.20
2018-09-21T01:26:54.625Z,19.20
2018-09-21T01:29:22.056Z,19.10
2018-09-21T01:31:49.540Z,19.10
2018-09-21T01:34:17.000Z,19.10
2018-09-21T01:36:44.555Z,19.20
2018-09-21T01:39:12.003Z,19.20
2018-09-21T01:41:39.666Z,19.10
2018-09-21T01:44:07.953Z,19.10
2018-09-21T01:46:35.534Z,19.00
2018-09-21T01:49:03.171Z,19.00
2018-09-21T01:51:30.679Z,19.00
2018-09-21T01:53:58.125Z,19.00
2018-09-21T01:56:25.703Z,19.00
2018-09-21T01:58:53.153Z,18.90
2018-09-21T02:01:20.893Z,18.90
2018-09-21T02:03:48.409Z,18.90
2018-09-21T02:06:15.879Z,18.90
2018-09-21T02:08:43.542Z,19.00
2018-09-21T02:11:11.108Z,19.00
2018-09-21T02:13:38.605Z,18.90
2018-09-21T02:16:06.118Z,18.90
2018-09-21T02:18:33.704Z,18.90
2018-09-21T02:21:01.194Z,18.90
2018-09-21T02:23:28.721Z,18.90
2018-09-21T02:25:56.249Z,18.90
2018-09-21T02:28:24.217Z,18.80
2018-09-21T02:30:51.776Z,18.80
2018-09-21T02:33:19.441Z,18.70
2018-09-21T02:35:46.913Z,18.80
2018-09-21T02:38:14.365Z,18.60
2018-09-21T02:40:41.869Z,18.50
2018-09-21T02:43:09.319Z,18.50
2018-09-21T02:45:36.805Z,18.50
2018-09-21T02:48:04.269Z,18.60
2018-09-21T02:50:31.745Z,18.50
2018-09-21T02:52:59.240Z,18.50
2018-09-21T02:55:26.733Z,18.50
2018-09-21T02:57:54.189Z,18.40
2018-09-21T03:00:21.699Z,18.40
2018-09-21T03:02:49.128Z,18.30
2018-09-21T03:05:16.629Z,18.40
2018-09-21T03:07:44.089Z,18.40
2018-09-21T03:10:11.579Z,18.30
2018-09-21T03:12:39.031Z,18.30
2018-09-21T03:15:06.704Z,18.30
2018-09-21T03:17:37.969Z,18.30
2018-09-21T03:20:05.770Z,18.30
2018-09-21T03:22:33.196Z,18.20
2018-09-21T03:25:00.688Z,18.20
2018-09-21T03:27:28.191Z,18.10
2018-09-21T03:29:55.689Z,18.20
2018-09-21T03:32:23.175Z,18.20
2018-09-21T03:34:50.722Z,18.20
2018-09-21T03:37:18.170Z,18.10
2018-09-21T03:39:45.681Z,18.10
2018-09-21T03:42:13.156Z,18.10
2018-09-21T03:44:40.698Z,18.00
2018-09-21T03:47:08.196Z,18.00
2018-09-21T03:49:35.631Z,18.00
2018-09-21T03:52:03.117Z,18.00
2018-09-21T03:54:30.542Z,18.10
2018-09-21T03:56:58.046Z,18.00
2018-09-21T03:59:25.497Z,18.00
2018-09-21T04:01:52.989Z,18.00
2018-09-21T04:04:20.447Z,18.00
2018-09-21T04:06:47.970Z,18.00
2018-09-21T04:09:15.426Z,18.00
2018-09-21T04:11:42.978Z,18.00
2018-09-21T04:14:10.423Z,17.90
2018-09-21T04:16:37.888Z,18.00
2018-09-21T04:19:05.508Z,18.00
2018-09-21T04:21:32.977Z,18.00
2018-09-21T04:24:00.410Z,18.10
2018-09-21T04:26:27.918Z,18.00
2018-09-21T04:28:55.426Z,18.10
2018-09-21T04:31:22.904Z,18.00
2018-09-21T04:33:50.391Z,18.10
2018-09-21T04:36:17.852Z,18.20
2018-09-21T04:38:45.357Z,18.20
2018-09-21T04:41:12.838Z,18.10
2018-09-21T04:43:40.400Z,18.20
2018-09-21T04:46:07.851Z,18.20
2018-09-21T04:48:35.311Z,18.30
2018-09-21T04:51:02.768Z,18.40
2018-09-21T04:53:30.238Z,18.30
2018-09-21T04:55:57.685Z,18.30
2018-09-21T04:58:25.178Z,18.20
2018-09-21T05:00:52.947Z,18.30
2018-09-21T05:03:20.411Z,18.30
2018-09-21T05:05:47.861Z,18.30
2018-09-21T05:08:15.352Z,18.30
2018-09-21T05:10:42.817Z,18.30
2018-09-21T05:13:12.264Z,18.30
2018-09-21T05:15:39.720Z,18.30
2018-09-21T05:18:07.203Z,18.40
2018-09-21T05:20:34.647Z,18.50
2018-09-21T05:23:02.125Z,18.40
2018-09-21T05:25:30.527Z,18.40
2018-09-21T05:27:57.980Z,18.40
2018-09-21T05:30:25.472Z,18.40
2018-09-21T05:32:52.939Z,18.50
2018-09-21T05:35:20.418Z,18.50
2018-09-21T05:37:47.913Z,18.60
2018-09-21T05:40:15.387Z,18.60
2018-09-21T05:42:43.015Z,18.70
2018-09-21T05:45:10.509Z,18.70
2018-09-21T05:47:37.940Z,18.80
2018-09-21T05:50:05.485Z,18.90
2018-09-21T05:52:32.924Z,18.90
2018-09-21T05:55:00.413Z,19.10
2018-09-21T05:57:27.873Z,19.10
2018-09-21T05:59:55.432Z,19.20
2018-09-21T06:02:22.942Z,19.20
2018-09-21T06:04:55.012Z,19.30
2018-09-21T06:07:22.446Z,19.40
2018-09-21T06:09:49.937Z,19.40
2018-09-21T06:12:17.428Z,19.50
2018-09-21T06:14:44.910Z,19.50
2018-09-21T06:17:13.832Z,19.50
2018-09-21T06:19:41.362Z,19.70
2018-09-21T06:22:08.874Z,19.70
2018-09-21T06:24:36.434Z,19.60
2018-09-21T06:27:03.913Z,19.60
2018-09-21T06:29:31.352Z,19.80
2018-09-21T06:31:58.860Z,19.80
2018-09-21T06:34:26.316Z,19.90
2018-09-21T06:36:53.813Z,19.90
2018-09-21T06:39:21.316Z,20.00
2018-09-21T06:41:49.781Z,20.10
2018-09-21T06:44:17.221Z,20.00
2018-09-21T06:46:44.716Z,20.10
2018-09-21T06:49:12.166Z,20.20
2018-09-21T06:51:39.656Z,20.30
2018-09-21T06:54:07.092Z,20.40
2018-09-21T06:56:34.616Z,20.40
2018-09-21T06:59:02.485Z,20.40
2018-09-21T07:01:30.054Z,20.60
2018-09-21T07:03:57.501Z,20.70
2018-09-21T07:06:24.991Z,20.90
2018-09-21T07:08:52.703Z,20.90
2018-09-21T07:11:20.213Z,21.00
2018-09-21T07:13:47.641Z,21.30
2018-09-21T07:16:15.172Z,21.30
2018-09-21T07:18:42.732Z,21.40
2018-09-21T07:21:10.267Z,21.50
2018-09-21T07:23:37.734Z,21.60
2018-09-21T07:26:05.259Z,21.70
2018-09-21T07:28:32.712Z,21.80
2018-09-21T07:31:00.227Z,21.80
2018-09-21T07:33:27.892Z,21.90
2018-09-21T07:35:55.448Z,22.00
2018-09-21T07:38:22.998Z,21.90
2018-09-21T07:40:50.537Z,22.10
2018-09-21T07:43:18.226Z,22.20
2018-09-21T07:45:45.712Z,22.40
2018-09-21T07:48:13.257Z,22.50
2018-09-21T07:50:40.789Z,22.60
2018-09-21T07:53:08.284Z,22.70
2018-09-21T07:55:35.807Z,22.90
2018-09-21T07:58:03.325Z,23.10
2018-09-21T08:00:30.781Z,23.10
2018-09-21T08:02:58.337Z,23.30
2018-09-21T08:05:33.021Z,23.50
2018-09-21T08:08:01.851Z,23.60
2018-09-21T08:10:29.858Z,23.80
2018-09-21T08:12:57.518Z,23.90
2018-09-21T08:15:24.953Z,24.10
2018-09-21T08:17:52.694Z,24.30
2018-09-21T08:20:20.178Z,24.30
2018-09-21T08:22:47.716Z,24.40
2018-09-21T08:25:15.146Z,24.40
2018-09-21T08:27:42.643Z,24.40
2018-09-21T08:30:10.104Z,24.50
2018-09-21T08:32:37.579Z,24.60
2018-09-21T08:35:05.082Z,24.60
2018-09-21T08:37:32.572Z,24.70
2018-09-21T08:40:00.053Z,24.70
2018-09-21T08:42:27.514Z,24.80
2018-09-21T08:44:55.024Z,24.90
2018-09-21T08:47:22.594Z,24.90
2018-09-21T08:49:50.102Z,25.00
2018-09-21T08:52:17.581Z,25.00
2018-09-21T08:54:45.026Z,24.90
2018-09-21T08:57:12.531Z,24.80
2018-09-21T08:59:40.023Z,24.80
2018-09-21T09:02:07.482Z,24.80
2018-09-21T09:04:34.902Z,24.90
2018-09-21T09:07:02.372Z,25.00
2018-09-21T09:09:29.822Z,25.10
2018-09-21T09:11:57.350Z,25.20
2018-09-21T09:14:24.807Z,25.20
2018-09-21T09:16:52.319Z,25.10
2018-09-21T09:19:19.793Z,25.00
2018-09-21T09:21:47.250Z,24.80
2018-09-21T09:24:14.758Z,24.90
2018-09-21T09:26:42.200Z,24.90
2018-09-21T09:29:09.691Z,24.90
2018-09-21T09:31:37.186Z,25.00
2018-09-21T09:34:04.727Z,25.00
2018-09-21T09:36:32.183Z,25.00
2018-09-21T09:38:59.657Z,25.10
2018-09-21T09:41:27.114Z,25.00
2018-09-21T09:43:54.654Z,25.10
2018-09-21T09:46:22.165Z,25.10
2018-09-21T09:48:49.734Z,25.10
2018-09-21T09:51:17.234Z,25.10
2018-09-21T09:53:44.721Z,25.20
2018-09-21T09:56:12.168Z,25.30
2018-09-21T09:58:39.648Z,25.40
2018-09-21T10:01:07.176Z,25.50
2018-09-21T10:03:34.819Z,25.50
2018-09-21T10:06:02.194Z,25.40
2018-09-21T10:08:29.659Z,25.40
2018-09-21T10:10:57.193Z,25.30
2018-09-21T10:13:25.756Z,25.30
2018-09-21T10:15:53.332Z,25.40
2018-09-21T10:18:20.748Z,25.50
2018-09-21T10:20:48.359Z,25.50
2018-09-21T10:23:15.854Z,25.40
2018-09-21T10:25:43.342Z,25.40
2018-09-21T10:28:10.871Z,25.30
2018-09-21T10:30:38.449Z,25.20
2018-09-21T10:33:06.042Z,25.20
2018-09-21T10:35:33.650Z,25.00
2018-09-21T10:38:01.013Z,25.10
2018-09-21T10:40:28.595Z,25.00
2018-09-21T10:42:56.057Z,24.90
2018-09-21T10:45:23.525Z,24.80
2018-09-21T10:47:51.368Z,24.70
2018-09-21T10:50:18.870Z,24.80
2018-09-21T10:52:46.429Z,24.80
2018-09-21T10:55:13.897Z,24.80
2018-09-21T10:57:41.490Z,24.90
2018-09-21T11:00:10.062Z,24.90
2018-09-21T11:02:37.809Z,25.00
2018-09-21T11:05:05.316Z,25.00
2018-09-21T11:07:33.003Z,25.00
2018-09-21T11:10:00.954Z,25.00
2018-09-21T11:12:28.660Z,24.80
2018-09-21T11:14:56.110Z,24.80
2018-09-21T11:17:23.631Z,24.80
2018-09-21T11:19:51.184Z,24.70
2018-09-21T11:22:18.688Z,24.80
2018-09-21T11:24:46.149Z,24.70
2018-09-21T11:27:13.764Z,24.70
2018-09-21T11:29:41.209Z,24.80
2018-09-21T11:32:08.669Z,24.70
2018-09-21T11:34:36.124Z,24.80
2018-09-21T11:37:03.602Z,24.80
2018-09-21T11:39:31.089Z,24.90
2018-09-21T11:41:58.561Z,24.90
2018-09-21T11:44:26.006Z,25.00
2018-09-21T11:46:53.630Z,24.90
2018-09-21T11:49:20.957Z,25.00
2018-09-21T11:51:48.433Z,24.90
2018-09-21T11:54:15.866Z,24.80
2018-09-21T11:56:43.333Z,24.90
2018-09-21T11:59:10.789Z,24.70
2018-09-21T12:01:38.274Z,24.60
2018-09-21T12:04:05.798Z,24.40
2018-09-21T12:06:33.278Z,24.30
2018-09-21T12:09:01.019Z,23.50
2018-09-21T12:11:28.525Z,22.40
2018-09-21T12:13:55.948Z,20.10
2018-09-21T12:16:23.409Z,19.60
2018-09-21T12:18:50.872Z,19.40
2018-09-21T12:21:18.422Z,17.90
2018-09-21T12:23:45.982Z,16.90
2018-09-21T12:26:13.470Z,16.40
2018-09-21T12:28:40.951Z,16.10
2018-09-21T12:31:08.459Z,15.50
2018-09-21T12:33:35.975Z,15.30
2018-09-21T12:36:05.015Z,15.20
2018-09-21T12:38:32.807Z,15.00
2018-09-21T12:41:00.255Z,14.70
2018-09-21T12:43:27.753Z,14.60
2018-09-21T12:45:55.210Z,14.70
2018-09-21T12:48:22.707Z,14.60
2018-09-21T12:50:50.163Z,14.40
2018-09-21T12:53:17.677Z,14.40
2018-09-21T12:55:45.156Z,14.90
2018-09-21T12:58:12.703Z,14.90
2018-09-21T13:00:45.707Z,14.70
2018-09-21T13:03:13.177Z,14.80
2018-09-21T13:05:40.731Z,14.90
2018-09-21T13:08:08.228Z,14.60
2018-09-21T13:10:35.677Z,14.80
2018-09-21T13:13:03.176Z,14.80
2018-09-21T13:15:30.636Z,15.10
2018-09-21T13:17:58.094Z,15.20
2018-09-21T13:20:25.675Z,15.10
2018-09-21T13:22:53.159Z,15.00
2018-09-21T13:25:20.592Z,15.00
2018-09-21T13:27:48.115Z,14.90
2018-09-21T13:30:15.634Z,15.20
2018-09-21T13:32:43.122Z,15.10
2018-09-21T13:35:10.638Z,15.20
2018-09-21T13:37:38.137Z,15.30
2018-09-21T13:40:05.712Z,15.30
2018-09-21T13:42:33.184Z,15.40
2018-09-21T13:45:00.696Z,15.40
2018-09-21T13:47:28.127Z,15.30
2018-09-21T13:49:55.637Z,15.40
2018-09-21T13:52:23.134Z,15.50
2018-09-21T13:54:50.687Z,15.30
2018-09-21T13:57:18.194Z,15.30
2018-09-21T13:59:45.697Z,15.30
2018-09-21T14:02:13.150Z,15.60
2018-09-21T14:04:40.635Z,15.60
2018-09-21T14:07:08.090Z,15.40
2018-09-21T14:09:35.546Z,15.40
2018-09-21T14:12:03.006Z,15.80
2018-09-21T14:14:30.460Z,15.50
2018-09-21T14:16:57.892Z,16.00
2018-09-21T14:19:25.452Z,15.80
2018-09-21T14:21:52.924Z,15.80
2018-09-21T14:24:20.399Z,15.80
2018-09-21T14:26:47.822Z,15.80
2018-09-21T14:29:15.382Z,15.70
2018-09-21T14:31:42.836Z,15.90
2018-09-21T14:34:10.537Z,15.90
2018-09-21T14:36:38.367Z,15.50
2018-09-21T14:39:07.756Z,15.60
2018-09-21T14:41:35.222Z,15.70
2018-09-21T14:44:02.988Z,15.70
2018-09-21T14:46:30.479Z,15.70
2018-09-21T14:48:57.932Z,15.80
2018-09-21T14:51:25.448Z,15.80
2018-09-21T14:53:52.925Z,15.80
2018-09-21T14:56:20.408Z,15.80
2018-09-21T14:58:47.861Z,15.80
2018-09-21T15:01:15.345Z,15.60
2018-09-21T15:03:42.777Z,15.80
2018-09-21T15:06:10.225Z,16.10
2018-09-21T15:08:37.688Z,15.90
2018-09-21T15:11:05.205Z,16.00
2018-09-21T15:13:32.669Z,15.90
2018-09-21T15:16:00.132Z,16.00
2018-09-21T15:18:27.569Z,16.20
2018-09-21T15:20:55.145Z,16.00
2018-09-21T15:23:22.603Z,15.90
2018-09-21T15:25:50.120Z,16.00
2018-09-21T15:28:17.644Z,16.10
2018-09-21T15:30:45.265Z,16.20
2018-09-21T15:33:13.041Z,16.00
2018-09-21T15:35:40.705Z,16.00
2018-09-21T15:38:08.481Z,16.30
2018-09-21T15:40:35.960Z,16.20
2018-09-21T15:43:03.610Z,16.40
2018-09-21T15:45:31.143Z,16.40
2018-09-21T15:47:58.702Z,16.50
2018-09-21T15:50:26.835Z,16.20
2018-09-21T15:52:54.383Z,16.10
2018-09-21T15:55:21.821Z,15.80
2018-09-21T15:57:49.328Z,15.80
2018-09-21T16:00:17.144Z,15.70
2018-09-21T16:02:44.656Z,15.70
2018-09-21T16:05:12.152Z,15.70
2018-09-21T16:07:39.604Z,15.50
2018-09-21T16:10:07.130Z,15.70
2018-09-21T16:12:34.617Z,15.70
2018-09-21T16:15:02.077Z,15.80
2018-09-21T16:17:29.615Z,15.40
2018-09-21T16:19:57.108Z,15.50
2018-09-21T16:22:24.600Z,15.40
2018-09-21T16:24:52.029Z,15.40
2018-09-21T16:27:19.494Z,15.60
2018-09-21T16:29:46.937Z,16.00
2018-09-21T16:32:14.408Z,16.10
2018-09-21T16:34:41.857Z,15.80
2018-09-21T16:37:09.317Z,15.90
2018-09-21T16:39:36.871Z,16.20
2018-09-21T16:42:04.373Z,16.40
2018-09-21T16:44:31.893Z,16.00
2018-09-21T16:46:59.438Z,15.70
2018-09-21T16:49:26.858Z,15.90
2018-09-21T16:51:55.287Z,15.60
2018-09-21T16:54:22.717Z,15.60
2018-09-21T16:56:50.203Z,15.30
2018-09-21T16:59:17.713Z,15.60
2018-09-21T17:01:45.218Z,15.50
2018-09-21T17:04:12.772Z,15.30
2018-09-21T17:06:40.330Z,15.30
2018-09-21T17:09:09.828Z,15.30
2018-09-21T17:11:37.295Z,15.40
2018-09-21T17:14:04.748Z,15.40
2018-09-21T17:16:32.237Z,15.40
2018-09-21T17:18:59.713Z,15.20
2018-09-21T17:21:27.187Z,15.10
2018-09-21T17:23:54.645Z,14.90
2018-09-21T17:26:22.701Z,14.80
2018-09-21T17:28:50.543Z,14.70
2018-09-21T17:31:18.125Z,14.50
2018-09-21T17:33:45.685Z,14.60
2018-09-21T17:36:13.242Z,14.80
2018-09-21T17:38:40.760Z,14.80
2018-09-21T17:41:08.452Z,14.80
2018-09-21T17:43:36.021Z,14.50
2018-09-21T17:46:03.564Z,14.70
2018-09-21T17:48:31.021Z,14.50
2018-09-21T17:50:58.452Z,14.60
2018-09-21T17:53:26.157Z,14.40
2018-09-21T17:55:53.648Z,14.30
2018-09-21T17:58:21.156Z,14.20
2018-09-21T18:00:48.731Z,14.10
2018-09-21T18:03:16.287Z,14.10
2018-09-21T18:05:43.742Z,14.00
2018-09-21T18:08:11.257Z,14.00
2018-09-21T18:10:38.694Z,13.90
2018-09-21T18:13:06.228Z,14.00
2018-09-21T18:15:33.740Z,14.20
2018-09-21T18:18:01.336Z,14.20
2018-09-21T18:20:28.810Z,14.20
2018-09-21T18:22:56.373Z,14.10
2018-09-21T18:25:23.977Z,14.10
2018-09-21T18:27:51.570Z,14.10
2018-09-21T18:30:19.043Z,14.10
2018-09-21T18:32:46.937Z,14.00
2018-09-21T18:35:14.719Z,14.00
2018-09-21T18:37:42.187Z,14.10
2018-09-21T18:40:09.737Z,14.20
2018-09-21T18:42:37.290Z,14.10
2018-09-21T18:45:06.066Z,14.10
2018-09-21T18:47:33.578Z,13.90
2018-09-21T18:50:01.031Z,13.90
2018-09-21T18:52:28.529Z,14.00
2018-09-21T18:54:56.050Z,13.70
2018-09-21T18:57:23.505Z,13.80
2018-09-21T18:59:51.105Z,13.80
2018-09-21T19:02:18.568Z,13.80
2018-09-21T19:04:46.082Z,13.70
2018-09-21T19:07:19.438Z,13.70
2018-09-21T19:09:46.965Z,13.90
2018-09-21T19:12:14.417Z,13.80
2018-09-21T19:14:41.888Z,13.60
2018-09-21T19:17:09.339Z,13.60
2018-09-21T19:19:36.841Z,13.70
2018-09-21T19:22:04.301Z,13.50
2018-09-21T19:24:31.903Z,13.60
2018-09-21T19:26:59.374Z,13.50
2018-09-21T19:29:26.898Z,13.60
2018-09-21T19:31:54.376Z,13.70
2018-09-21T19:34:21.862Z,13.70
2018-09-21T19:36:49.325Z,13.70
2018-09-21T19:39:16.827Z,13.70
2018-09-21T19:41:46.145Z,13.90
2018-09-21T19:44:13.688Z,13.80
2018-09-21T19:46:41.414Z,13.50
2018-09-21T19:49:08.909Z,13.50
2018-09-21T19:51:36.418Z,13.40
2018-09-21T19:54:03.924Z,13.40
2018-09-21T19:56:31.479Z,13.40
2018-09-21T19:58:58.962Z,13.30
2018-09-21T20:01:26.448Z,13.30
2018-09-21T20:03:53.957Z,13.30
2018-09-21T20:06:21.434Z,13.20
2018-09-21T20:08:48.943Z,13.20
2018-09-21T20:11:16.432Z,13.10
2018-09-21T20:13:43.912Z,13.40
2018-09-21T20:16:11.398Z,13.20
2018-09-21T20:18:38.912Z,13.20
2018-09-21T20:21:06.638Z,13.20
2018-09-21T20:23:34.073Z,13.20
2018-09-21T20:26:01.578Z,13.20
2018-09-21T20:28:29.069Z,13.30
2018-09-21T20:31:02.391Z,13.20
2018-09-21T20:33:31.543Z,13.30
2018-09-21T20:35:59.412Z,13.00
2018-09-21T20:38:27.669Z,13.10
2018-09-21T20:40:55.389Z,13.10
2018-09-21T20:43:22.994Z,13.10
2018-09-21T20:45:50.540Z,13.20
2018-09-21T20:48:18.070Z,13.10
2018-09-21T20:50:45.571Z,13.00
2018-09-21T20:53:13.006Z,12.90
2018-09-21T20:55:40.486Z,13.00
2018-09-21T20:58:08.176Z,13.00
2018-09-21T21:00:35.787Z,12.80
2018-09-21T21:03:03.245Z,12.80
2018-09-21T21:05:36.842Z,12.70
2018-09-21T21:08:04.682Z,12.70
2018-09-21T21:10:32.192Z,12.60
2018-09-21T21:12:59.829Z,12.60
2018-09-21T21:15:27.396Z,12.60
2018-09-21T21:17:54.904Z,12.70
2018-09-21T21:20:22.395Z,12.70
2018-09-21T21:22:49.952Z,12.60
2018-09-21T21:25:17.447Z,12.60
2018-09-21T21:27:44.982Z,12.60
2018-09-21T21:30:12.499Z,12.50
2018-09-21T21:32:39.941Z,12.60
2018-09-21T21:35:07.581Z,12.50
2018-09-21T21:37:35.034Z,12.50
2018-09-21T21:40:03.348Z,12.40
2018-09-21T21:42:31.172Z,12.20
2018-09-21T21:44:59.069Z,12.10
2018-09-21T21:47:27.242Z,12.10
2018-09-21T21:49:54.756Z,12.30
2018-09-21T21:52:22.243Z,12.00
2018-09-21T21:54:49.696Z,11.90
2018-09-21T21:57:17.169Z,12.00
2018-09-21T21:59:45.103Z,11.80
2018-09-21T22:02:13.113Z,11.80
2018-09-21T22:04:41.171Z,11.80
2018-09-21T22:07:09.365Z,11.80
2018-09-21T22:09:36.815Z,11.80
2018-09-21T22:12:10.158Z,11.80
2018-09-21T22:14:37.587Z,11.80
2018-09-21T22:17:05.379Z,11.80
2018-09-21T22:19:32.835Z,11.70
2018-09-21T22:22:00.345Z,11.50
2018-09-21T22:24:27.989Z,11.30
2018-09-21T22:26:55.957Z,11.40
2018-09-21T22:29:23.467Z,11.60
2018-09-21T22:31:51.040Z,11.50
2018-09-21T22:34:18.556Z,11.40
2018-09-21T22:36:46.147Z,11.40
2018-09-21T22:39:13.719Z,11.40
2018-09-21T22:41:41.276Z,11.30
2018-09-21T22:44:08.839Z,11.20
2018-09-21T22:46:36.394Z,11.20
2018-09-21T22:49:07.027Z,11.20
2018-09-21T22:51:34.525Z,11.10
2018-09-21T22:54:01.981Z,11.10
2018-09-21T22:56:29.469Z,11.20
2018-09-21T22:58:56.930Z,11.20
2018-09-21T23:01:24.550Z,11.20
2018-09-21T23:03:52.032Z,11.20
2018-09-21T23:06:19.533Z,11.10
2018-09-21T23:08:47.007Z,11.10
2018-09-21T23:11:14.508Z,11.10
2018-09-21T23:13:41.999Z,11.00
2018-09-21T23:16:09.512Z,11.00
2018-09-21T23:18:36.972Z,11.00
2018-09-21T23:21:04.492Z,11.00
2018-09-21T23:23:31.971Z,10.70
2018-09-21T23:25:59.428Z,10.70
2018-09-21T23:28:26.934Z,10.70
2018-09-21T23:30:54.503Z,10.60
2018-09-21T23:33:21.983Z,10.60
2018-09-21T23:35:49.436Z,10.60
2018-09-21T23:38:16.946Z,10.60
2018-09-21T23:40:44.433Z,10.60
2018-09-21T23:43:11.907Z,10.70
2018-09-21T23:45:39.365Z,10.70
2018-09-21T23:48:07.211Z,10.70
2018-09-21T23:50:34.681Z,10.70
2018-09-21T23:53:02.171Z,10.60
2018-09-21T23:55:29.610Z,10.60
2018-09-21T23:57:57.087Z,10.60
